createdAt,value
2018-06-05T00:00:34.503Z,93.70
2018-06-05T00:03:03.423Z,93.80
2018-06-05T00:05:32.807Z,93.60
2018-06-05T00:08:01.892Z,92.90
2018-06-05T00:10:31.236Z,93.40
2018-06-05T00:13:00.227Z,93.60
2018-06-05T00:15:29.564Z,93.40
2018-06-05T00:17:58.435Z,93.60
2018-06-05T00:20:27.296Z,93.50
2018-06-05T00:22:56.136Z,93.70
2018-06-05T00:25:24.979Z,93.50
2018-06-05T00:27:53.806Z,93.60
2018-06-05T00:30:22.623Z,93.50
2018-06-05T00:32:51.452Z,93.60
2018-06-05T00:35:20.275Z,93.60
2018-06-05T00:37:49.388Z,93.50
2018-06-05T00:40:18.212Z,93.60
2018-06-05T00:42:47.065Z,93.50
2018-06-05T00:45:16.587Z,93.30
2018-06-05T00:47:46.035Z,93.40
2018-06-05T00:50:14.896Z,93.30
2018-06-05T00:52:43.736Z,93.60
2018-06-05T00:57:41.263Z,92.60
2018-06-05T01:00:10.088Z,93.00
2018-06-05T01:05:08.249Z,93.30
2018-06-05T01:07:37.524Z,93.30
2018-06-05T01:10:06.851Z,93.50
2018-06-05T01:12:35.727Z,93.50
2018-06-05T01:15:04.586Z,93.20
2018-06-05T01:17:33.421Z,93.30
2018-06-05T01:20:02.276Z,93.10
2018-06-05T01:22:31.136Z,93.30
2018-06-05T01:24:59.974Z,93.40
2018-06-05T01:27:28.816Z,93.50
2018-06-05T01:29:57.628Z,93.40
2018-06-05T01:32:26.463Z,93.30
2018-06-05T01:34:55.315Z,93.00
2018-06-05T01:37:24.135Z,93.10
2018-06-05T01:39:52.979Z,93.20
2018-06-05T01:42:21.823Z,93.40
2018-06-05T01:44:50.632Z,93.20
2018-06-05T01:47:19.483Z,93.30
2018-06-05T01:49:48.306Z,93.50
2018-06-05T01:52:17.157Z,93.50
2018-06-05T01:54:46.036Z,93.50
2018-06-05T01:57:14.887Z,93.60
2018-06-05T01:59:43.700Z,93.30
2018-06-05T02:02:12.570Z,93.50
2018-06-05T02:04:41.407Z,93.50
2018-06-05T02:08:34.743Z,93.40
2018-06-05T02:11:03.575Z,93.50
2018-06-05T02:13:32.443Z,93.30
2018-06-05T02:16:01.298Z,93.30
2018-06-05T02:18:30.139Z,93.70
2018-06-05T02:20:58.992Z,93.70
2018-06-05T02:26:00.308Z,93.60
2018-06-05T02:28:29.163Z,93.40
2018-06-05T02:30:58.003Z,93.30
2018-06-05T02:33:26.826Z,93.50
2018-06-05T02:35:55.684Z,93.70
2018-06-05T02:38:24.543Z,93.60
2018-06-05T02:40:53.344Z,93.80
2018-06-05T02:43:22.188Z,93.30
2018-06-05T02:45:51.231Z,93.50
2018-06-05T02:48:20.039Z,93.90
2018-06-05T02:50:48.913Z,93.60
2018-06-05T02:53:18.059Z,93.50
2018-06-05T02:55:49.030Z,93.50
2018-06-05T02:58:17.838Z,93.70
2018-06-05T03:00:47.357Z,93.60
2018-06-05T03:03:16.183Z,93.30
2018-06-05T03:05:45.004Z,93.40
2018-06-05T03:08:13.851Z,93.60
2018-06-05T03:10:42.693Z,93.70
2018-06-05T03:13:11.543Z,93.50
2018-06-05T03:15:40.351Z,93.70
2018-06-05T03:18:09.183Z,93.70
2018-06-05T03:20:38.028Z,93.60
2018-06-05T03:23:06.880Z,94.00
2018-06-05T03:25:35.802Z,93.90
2018-06-05T03:28:04.663Z,93.90
2018-06-05T03:30:33.547Z,93.60
2018-06-05T03:33:02.422Z,93.70
2018-06-05T03:35:31.483Z,94.00
2018-06-05T03:38:00.906Z,94.00
2018-06-05T03:42:58.484Z,93.90
2018-06-05T03:45:27.350Z,94.00
2018-06-05T03:52:54.707Z,94.00
2018-06-05T03:55:23.507Z,94.00
2018-06-05T04:00:21.935Z,94.10
2018-06-05T04:02:51.079Z,94.10
2018-06-05T04:07:48.655Z,94.10
2018-06-05T04:12:46.587Z,94.20
2018-06-05T04:15:15.806Z,94.20
2018-06-05T04:17:44.716Z,94.20
2018-06-05T04:20:14.020Z,94.10
2018-06-05T04:22:43.012Z,94.00
2018-06-05T04:30:09.742Z,94.00
2018-06-05T04:35:07.456Z,94.30
2018-06-05T04:37:36.336Z,94.20
2018-06-05T04:42:33.959Z,94.20
2018-06-05T04:45:02.840Z,94.20
2018-06-05T04:47:31.733Z,94.30
2018-06-05T04:50:00.665Z,94.40
2018-06-05T04:54:59.736Z,94.30
2018-06-05T05:04:28.870Z,94.30
2018-06-05T05:06:57.731Z,94.10
2018-06-05T05:11:55.323Z,94.40
2018-06-05T05:14:24.607Z,94.20
2018-06-05T05:16:53.467Z,94.40
2018-06-05T05:19:22.334Z,94.40
2018-06-05T05:21:51.211Z,94.20
2018-06-05T05:24:20.831Z,94.20
2018-06-05T05:26:49.714Z,94.30
2018-06-05T05:29:18.551Z,94.20
2018-06-05T05:31:48.311Z,93.60
2018-06-05T05:34:17.772Z,93.60
2018-06-05T05:36:46.703Z,93.60
2018-06-05T05:39:15.615Z,94.00
2018-06-05T05:41:44.480Z,94.00
2018-06-05T05:44:13.407Z,94.10
2018-06-05T05:46:42.263Z,93.80
2018-06-05T05:49:11.108Z,93.90
2018-06-05T05:51:39.979Z,94.00
2018-06-05T05:54:08.832Z,94.10
2018-06-05T05:59:06.736Z,93.50
2018-06-05T06:01:35.638Z,93.20
2018-06-05T06:04:04.660Z,93.40
2018-06-05T06:06:33.548Z,93.10
2018-06-05T06:09:02.536Z,93.70
2018-06-05T06:11:31.404Z,93.10
2018-06-05T06:14:00.291Z,92.90
2018-06-05T06:16:32.884Z,92.90
2018-06-05T06:19:01.755Z,93.00
2018-06-05T06:21:30.652Z,93.40
2018-06-05T06:23:59.557Z,93.60
2018-06-05T06:28:57.720Z,93.20
2018-06-05T06:31:26.593Z,93.10
2018-06-05T06:33:55.468Z,93.30
2018-06-05T06:36:24.824Z,93.40
2018-06-05T06:38:54.020Z,93.30
2018-06-05T06:43:51.655Z,93.40
2018-06-05T06:48:49.265Z,92.10
2018-06-05T06:51:18.134Z,91.70
2018-06-05T06:56:16.099Z,91.40
2018-06-05T07:01:15.012Z,91.90
2018-06-05T07:03:43.867Z,92.10
2018-06-05T07:06:12.719Z,91.50
2018-06-05T07:08:41.563Z,91.60
2018-06-05T07:11:10.458Z,91.50
2018-06-05T07:13:39.656Z,91.10
2018-06-05T07:16:08.505Z,91.20
2018-06-05T07:18:37.356Z,91.10
2018-06-05T07:23:35.264Z,91.30
2018-06-05T07:26:04.175Z,91.80
2018-06-05T07:28:33.025Z,91.40
2018-06-05T07:31:01.894Z,91.30
2018-06-05T07:38:28.075Z,90.90
2018-06-05T07:40:57.523Z,90.50
2018-06-05T07:43:26.376Z,90.50
2018-06-05T07:45:55.223Z,90.40
2018-06-05T07:48:24.103Z,90.00
2018-06-05T07:50:52.967Z,90.20
2018-06-05T07:55:50.911Z,88.50
2018-06-05T08:00:48.495Z,87.10
2018-06-05T08:03:17.348Z,85.70
2018-06-05T08:05:46.200Z,85.00
2018-06-05T08:08:15.064Z,87.30
2018-06-05T08:10:43.924Z,84.20
2018-06-05T08:13:13.474Z,85.90
2018-06-05T08:15:42.338Z,86.00
2018-06-05T08:18:11.411Z,81.30
2018-06-05T08:20:40.276Z,83.00
2018-06-05T08:23:09.143Z,80.60
2018-06-05T08:25:38.010Z,80.40
2018-06-05T08:28:06.946Z,81.50
2018-06-05T08:30:35.828Z,81.70
2018-06-05T08:35:33.808Z,79.30
2018-06-05T08:38:02.700Z,80.10
2018-06-05T08:40:31.554Z,81.50
2018-06-05T08:43:00.411Z,79.00
2018-06-05T08:45:29.571Z,80.50
2018-06-05T08:47:58.463Z,80.70
2018-06-05T08:50:27.523Z,78.00
2018-06-05T08:55:25.434Z,75.90
2018-06-05T08:57:54.270Z,76.20
2018-06-05T09:00:23.124Z,75.60
2018-06-05T09:02:52.339Z,77.30
2018-06-05T09:05:21.215Z,78.50
2018-06-05T09:07:50.089Z,74.20
2018-06-05T09:10:18.933Z,75.40
2018-06-05T09:12:47.870Z,77.20
2018-06-05T09:17:45.515Z,73.90
2018-06-05T09:20:14.381Z,74.20
2018-06-05T09:22:43.235Z,73.60
2018-06-05T09:25:12.114Z,73.10
2018-06-05T09:27:41.003Z,77.30
2018-06-05T09:30:09.876Z,75.30
2018-06-05T09:32:38.771Z,76.80
2018-06-05T09:35:07.656Z,78.70
2018-06-05T09:37:36.595Z,72.20
2018-06-05T09:40:05.465Z,72.70
2018-06-05T09:42:34.378Z,70.10
2018-06-05T09:45:03.315Z,71.10
2018-06-05T09:47:32.179Z,70.80
2018-06-05T09:50:01.070Z,74.20
2018-06-05T09:52:29.943Z,74.30
2018-06-05T09:54:58.795Z,72.10
2018-06-05T09:57:27.710Z,72.70
2018-06-05T09:59:56.592Z,74.30
2018-06-05T10:02:25.451Z,76.80
2018-06-05T10:04:54.310Z,72.50
2018-06-05T10:07:23.178Z,70.80
2018-06-05T10:09:52.012Z,69.90
2018-06-05T10:14:49.651Z,71.00
2018-06-05T10:17:19.156Z,67.10
2018-06-05T10:19:48.028Z,69.80
2018-06-05T10:22:16.911Z,70.30
2018-06-05T10:24:45.799Z,65.10
2018-06-05T10:27:14.659Z,62.90
2018-06-05T10:29:50.278Z,65.10
2018-06-05T10:32:19.155Z,68.10
2018-06-05T10:34:48.020Z,65.90
2018-06-05T10:37:16.907Z,67.50
2018-06-05T10:39:45.765Z,68.20
2018-06-05T10:42:14.637Z,68.90
2018-06-05T10:44:43.526Z,67.40
2018-06-05T10:47:12.435Z,68.50
2018-06-05T10:49:41.296Z,68.00
2018-06-05T10:52:10.175Z,69.40
2018-06-05T10:54:39.024Z,68.80
2018-06-05T10:57:07.920Z,70.30
2018-06-05T10:59:36.806Z,68.40
2018-06-05T11:02:05.843Z,67.70
2018-06-05T11:04:34.682Z,69.30
2018-06-05T11:07:03.575Z,62.40
2018-06-05T11:09:32.427Z,63.20
2018-06-05T11:12:01.299Z,64.90
2018-06-05T11:14:30.135Z,63.80
2018-06-05T11:16:59.007Z,62.90
2018-06-05T11:19:27.891Z,68.10
2018-06-05T11:21:56.760Z,66.40
2018-06-05T11:24:25.684Z,66.80
2018-06-05T11:26:54.548Z,68.70
2018-06-05T11:29:23.432Z,69.60
2018-06-05T11:31:52.300Z,71.30
2018-06-05T11:34:21.150Z,70.20
2018-06-05T11:36:50.098Z,72.00
2018-06-05T11:39:18.924Z,70.10
2018-06-05T11:41:47.798Z,70.70
2018-06-05T11:44:16.698Z,71.80
2018-06-05T11:46:45.567Z,69.00
2018-06-05T11:49:14.408Z,66.30
2018-06-05T11:51:43.232Z,67.90
2018-06-05T11:54:12.187Z,69.40
2018-06-05T11:56:41.044Z,65.90
2018-06-05T11:59:09.895Z,66.60
2018-06-05T12:01:38.752Z,64.30
2018-06-05T12:04:07.609Z,59.60
2018-06-05T12:06:36.496Z,60.30
2018-06-05T12:09:07.335Z,62.30
2018-06-05T12:11:36.163Z,60.80
2018-06-05T12:14:05.047Z,60.80
2018-06-05T12:19:02.757Z,60.00
2018-06-05T12:21:31.699Z,62.40
2018-06-05T12:24:00.842Z,59.10
2018-06-05T12:26:30.008Z,58.00
2018-06-05T12:28:58.878Z,59.90
2018-06-05T12:31:27.761Z,60.40
2018-06-05T12:33:56.623Z,56.90
2018-06-05T12:36:25.491Z,58.00
2018-06-05T12:38:54.367Z,57.60
2018-06-05T12:41:23.204Z,55.90
2018-06-05T12:43:52.054Z,55.90
2018-06-05T12:46:20.936Z,56.40
2018-06-05T12:48:49.804Z,55.30
2018-06-05T12:51:18.647Z,56.30
2018-06-05T12:53:47.483Z,55.20
2018-06-05T12:56:16.521Z,56.60
2018-06-05T12:58:45.378Z,56.90
2018-06-05T13:03:43.838Z,57.90
2018-06-05T13:06:12.679Z,59.80
2018-06-05T13:08:41.571Z,57.40
2018-06-05T13:11:10.457Z,56.00
2018-06-05T13:13:39.314Z,57.00
2018-06-05T13:16:08.147Z,58.10
2018-06-05T13:18:36.996Z,57.20
2018-06-05T13:21:05.943Z,57.50
2018-06-05T13:23:34.847Z,55.90
2018-06-05T13:26:03.746Z,56.30
2018-06-05T13:28:33.159Z,55.40
2018-06-05T13:31:02.052Z,56.00
2018-06-05T13:33:30.887Z,56.00
2018-06-05T13:35:59.755Z,54.60
2018-06-05T13:40:57.417Z,56.30
2018-06-05T13:43:26.296Z,53.70
2018-06-05T13:45:55.167Z,54.10
2018-06-05T13:48:24.012Z,54.10
2018-06-05T13:53:21.608Z,55.60
2018-06-05T13:58:19.273Z,54.00
2018-06-05T14:03:16.888Z,55.30
2018-06-05T14:05:46.699Z,54.70
2018-06-05T14:08:15.591Z,54.20
2018-06-05T14:10:44.450Z,55.30
2018-06-05T14:13:14.362Z,54.20
2018-06-05T14:15:43.271Z,53.10
2018-06-05T14:18:12.458Z,54.00
2018-06-05T14:20:41.355Z,54.80
2018-06-05T14:23:10.199Z,54.90
2018-06-05T14:25:39.055Z,55.40
2018-06-05T14:28:07.932Z,56.30
2018-06-05T14:30:36.815Z,56.60
2018-06-05T14:33:05.695Z,56.90
2018-06-05T14:35:34.525Z,58.10
2018-06-05T14:38:03.380Z,58.60
2018-06-05T14:40:32.239Z,57.00
2018-06-05T14:43:01.104Z,57.30
2018-06-05T14:45:29.976Z,58.00
2018-06-05T14:47:58.822Z,56.10
2018-06-05T14:50:27.728Z,58.90
2018-06-05T14:52:56.596Z,58.90
2018-06-05T14:55:25.461Z,58.70
2018-06-05T15:00:23.063Z,59.70
2018-06-05T15:02:51.940Z,59.80
2018-06-05T15:05:20.924Z,60.70
2018-06-05T15:07:49.795Z,61.90
2018-06-05T15:10:18.675Z,61.70
2018-06-05T15:12:47.563Z,62.50
2018-06-05T15:15:16.431Z,63.30
2018-06-05T15:17:45.348Z,61.10
2018-06-05T15:20:14.189Z,61.10
2018-06-05T15:22:43.071Z,62.40
2018-06-05T15:25:11.907Z,58.90
2018-06-05T15:27:40.817Z,59.70
2018-06-05T15:30:09.683Z,58.80
2018-06-05T15:32:38.563Z,58.20
2018-06-05T15:35:07.416Z,59.30
2018-06-05T15:40:05.184Z,63.20
2018-06-05T15:42:34.047Z,60.10
2018-06-05T15:45:02.985Z,59.30
2018-06-05T15:47:31.865Z,62.60
2018-06-05T15:50:00.704Z,60.50
2018-06-05T15:52:29.603Z,59.70
2018-06-05T15:54:58.467Z,62.40
2018-06-05T15:57:27.396Z,62.00
2018-06-05T15:59:56.620Z,64.80
2018-06-05T16:02:25.594Z,63.20
2018-06-05T16:04:54.514Z,65.00
2018-06-05T16:07:23.388Z,65.20
2018-06-05T16:09:52.300Z,66.10
2018-06-05T16:12:21.167Z,65.20
2018-06-05T16:14:50.255Z,66.30
2018-06-05T16:19:47.899Z,66.80
2018-06-05T16:22:16.921Z,65.10
2018-06-05T16:24:45.819Z,67.20
2018-06-05T16:27:14.720Z,67.50
2018-06-05T16:29:43.588Z,69.00
2018-06-05T16:32:12.462Z,68.40
2018-06-05T16:34:41.331Z,68.00
2018-06-05T16:37:10.203Z,71.10
2018-06-05T16:39:39.056Z,69.50
2018-06-05T16:42:07.963Z,66.90
2018-06-05T16:44:36.787Z,67.20
2018-06-05T16:47:05.643Z,67.00
2018-06-05T16:49:34.884Z,61.70
2018-06-05T16:52:03.931Z,63.30
2018-06-05T16:57:01.531Z,61.50
2018-06-05T16:59:30.601Z,61.10
2018-06-05T17:04:28.348Z,65.80
2018-06-05T17:07:00.203Z,67.10
2018-06-05T17:09:29.324Z,69.20
2018-06-05T17:11:58.272Z,69.00
2018-06-05T17:14:27.123Z,69.00
2018-06-05T17:16:56.057Z,69.60
2018-06-05T17:19:24.955Z,69.20
2018-06-05T17:21:53.819Z,70.10
2018-06-05T17:24:22.691Z,71.70
2018-06-05T17:29:20.730Z,71.80
2018-06-05T17:31:49.604Z,71.70
2018-06-05T17:34:18.485Z,70.50
2018-06-05T17:36:47.393Z,69.90
2018-06-05T17:39:16.258Z,71.70
2018-06-05T17:41:45.172Z,69.40
2018-06-05T17:44:14.051Z,70.60
2018-06-05T17:46:42.943Z,70.80
2018-06-05T17:49:11.802Z,71.90
2018-06-05T17:51:42.386Z,72.70
2018-06-05T17:54:11.283Z,71.60
2018-06-05T17:56:40.159Z,73.20
2018-06-05T17:59:09.152Z,74.80
2018-06-05T18:01:37.992Z,76.10
2018-06-05T18:04:06.844Z,76.20
2018-06-05T18:06:35.727Z,77.20
2018-06-05T18:09:07.480Z,77.40
2018-06-05T18:11:36.384Z,76.60
2018-06-05T18:14:05.253Z,78.00
2018-06-05T18:16:34.216Z,78.30
2018-06-05T18:19:03.104Z,77.80
2018-06-05T18:21:31.993Z,78.80
2018-06-05T18:24:00.911Z,79.10
2018-06-05T18:26:29.775Z,79.80
2018-06-05T18:31:27.428Z,80.40
2018-06-05T18:36:25.128Z,80.50
2018-06-05T18:41:23.096Z,80.00
2018-06-05T18:43:51.951Z,80.90
2018-06-05T18:46:20.877Z,81.20
2018-06-05T18:51:19.307Z,81.50
2018-06-05T18:53:48.820Z,81.80
2018-06-05T18:56:17.687Z,82.40
2018-06-05T18:58:47.196Z,82.90
2018-06-05T19:01:16.159Z,82.40
2018-06-05T19:03:46.342Z,83.40
2018-06-05T19:06:15.300Z,83.90
2018-06-05T19:08:44.857Z,83.90
2018-06-05T19:11:15.596Z,84.50
2018-06-05T19:13:44.768Z,84.40
2018-06-05T19:16:13.926Z,84.00
2018-06-05T19:21:12.651Z,83.50
2018-06-05T19:26:11.136Z,83.90
2018-06-05T19:28:40.083Z,85.00
2018-06-05T19:31:10.175Z,84.80
2018-06-05T19:33:39.144Z,85.10
2018-06-05T19:38:37.890Z,85.50
2018-06-05T19:41:07.811Z,85.20
2018-06-05T19:43:37.930Z,85.30
2018-06-05T19:46:07.030Z,85.60
2018-06-05T19:48:39.257Z,85.80
2018-06-05T19:51:08.448Z,85.30
2018-06-05T19:53:37.347Z,85.50
2018-06-05T19:56:07.201Z,85.80
2018-06-05T19:58:36.103Z,86.80
2018-06-05T20:01:05.296Z,86.20
2018-06-05T20:06:03.318Z,87.00
2018-06-05T20:08:32.513Z,86.60
2018-06-05T20:13:30.412Z,86.90
2018-06-05T20:15:59.440Z,87.50
2018-06-05T20:18:28.809Z,87.40
2018-06-05T20:20:57.712Z,87.50
2018-06-05T20:23:27.150Z,88.50
2018-06-05T20:25:56.084Z,88.50
2018-06-05T20:28:25.271Z,88.60
2018-06-05T20:30:54.480Z,88.20
2018-06-05T20:33:23.371Z,87.60
2018-06-05T20:35:52.219Z,88.00
2018-06-05T20:38:21.743Z,87.70
2018-06-05T20:43:20.569Z,88.80
2018-06-05T20:45:49.915Z,88.90
2018-06-05T20:48:18.824Z,88.90
2018-06-05T20:55:46.414Z,89.60
2018-06-05T20:58:15.496Z,89.00
2018-06-05T21:00:44.461Z,89.30
2018-06-05T21:03:13.383Z,88.90
2018-06-05T21:05:42.947Z,88.90
2018-06-05T21:08:11.908Z,89.00
2018-06-05T21:10:40.949Z,89.60
2018-06-05T21:13:09.847Z,89.50
2018-06-05T21:15:38.705Z,89.20
2018-06-05T21:18:07.579Z,89.30
2018-06-05T21:20:37.043Z,89.80
2018-06-05T21:23:06.084Z,89.50
2018-06-05T21:25:35.115Z,88.90
2018-06-05T21:28:04.226Z,89.40
2018-06-05T21:30:33.115Z,89.90
2018-06-05T21:33:01.982Z,90.00
2018-06-05T21:35:30.827Z,89.60
2018-06-05T21:37:59.697Z,90.00
2018-06-05T21:42:57.302Z,90.00
2018-06-05T21:45:26.172Z,89.80
2018-06-05T21:47:55.064Z,89.50
2018-06-05T21:55:21.484Z,89.10
2018-06-05T21:57:50.344Z,89.90
2018-06-05T22:00:22.070Z,89.90
2018-06-05T22:05:19.659Z,88.80
2018-06-05T22:07:48.553Z,89.50
2018-06-05T22:10:17.400Z,89.80
2018-06-05T22:17:43.966Z,90.10
2018-06-05T22:20:12.863Z,90.10
2018-06-05T22:22:41.797Z,89.00
2018-06-05T22:25:10.763Z,88.50
2018-06-05T22:27:39.719Z,89.00
2018-06-05T22:30:08.684Z,89.60
2018-06-05T22:32:44.452Z,89.20
2018-06-05T22:35:13.364Z,88.70
2018-06-05T22:37:42.284Z,89.70
2018-06-05T22:42:40.331Z,88.70
2018-06-05T22:45:09.239Z,88.50
2018-06-05T22:50:07.335Z,87.70
2018-06-05T22:52:36.250Z,88.60
2018-06-05T22:55:05.310Z,87.70
2018-06-05T22:57:34.359Z,88.40
2018-06-05T23:00:03.338Z,87.50
2018-06-05T23:02:32.183Z,88.50
2018-06-05T23:05:01.047Z,88.80
2018-06-05T23:07:29.925Z,88.50
2018-06-05T23:09:58.767Z,88.30
2018-06-05T23:12:27.651Z,88.00
2018-06-05T23:14:56.624Z,88.80
2018-06-05T23:17:25.515Z,89.00
2018-06-05T23:19:54.362Z,88.70
2018-06-05T23:22:23.170Z,88.80
2018-06-05T23:24:52.008Z,89.70
2018-06-05T23:27:20.871Z,89.00
2018-06-05T23:29:49.736Z,89.50
2018-06-05T23:32:18.658Z,89.10
2018-06-05T23:34:47.454Z,89.40
2018-06-05T23:37:16.313Z,88.90
2018-06-05T23:39:45.151Z,89.40
2018-06-05T23:42:14.019Z,89.60
2018-06-05T23:44:42.874Z,89.10
2018-06-05T23:47:11.728Z,88.80
2018-06-05T23:49:40.610Z,89.10
2018-06-05T23:52:09.499Z,88.30
2018-06-05T23:54:38.363Z,89.00
2018-06-05T23:57:07.214Z,89.10
2018-06-05T23:59:36.275Z,89.00
